Time;durP1;ratioP1;P1;durP2;ratioP2;P2;SDS_P1;SDS_P2;PMS_P1;PMS_P2;Temp;Humidity;BMP_temperature;BMP_pressure;BME280_temperature;BME280_humidity;BME280_pressure;Samples;Min_cycle;Max_cycle;Signal;HPM_P1;HPM_P2
2021/09/16 00:00:28;;;;;;;8.10;5.30;;;;;;;;;;143732;644;46012;-85
2021/09/16 00:02:59;;;;;;;7.22;6.07;;;;;;;;;;143728;574;47021;-86
2021/09/16 00:05:27;;;;;;;7.18;5.30;;;;;;;;;;143730;602;46012;-86
2021/09/16 00:08:16;;;;;;;7.40;6.03;;;;;;;;;;143725;599;46018;-85
2021/09/16 00:10:44;;;;;;;15.80;6.57;;;;;;;;;;143732;584;46012;-86
2021/09/16 00:13:11;;;;;;;8.02;5.65;;;;;;;;;;143728;583;46018;-86
2021/09/16 00:15:41;;;;;;;11.60;6.00;;;;;;;;;;143729;584;46022;-84
2021/09/16 00:18:18;;;;;;;7.65;5.03;;;;;;;;;;143730;569;46018;-84
2021/09/16 00:20:53;;;;;;;6.18;5.18;;;;;;;;;;143730;564;46012;-86
2021/09/16 00:23:20;;;;;;;7.93;5.50;;;;;;;;;;143729;586;46020;-85
2021/09/16 00:25:47;;;;;;;14.80;6.20;;;;;;;;;;143729;628;46013;-84
2021/09/16 00:28:16;;;;;;;6.25;5.65;;;;;;;;;;143733;566;46018;-85
2021/09/16 00:30:42;;;;;;;9.60;6.03;;;;;;;;;;143732;681;46022;-85
2021/09/16 00:33:13;;;;;;;11.18;5.50;;;;;;;;;;143724;574;47021;-84
2021/09/16 00:35:40;;;;;;;8.32;5.55;;;;;;;;;;143731;582;46012;-85
2021/09/16 00:38:07;;;;;;;7.30;5.97;;;;;;;;;;143731;589;46044;-85
2021/09/16 00:40:34;;;;;;;10.82;5.72;;;;;;;;;;143732;632;46012;-85
2021/09/16 00:43:01;;;;;;;10.77;6.55;;;;;;;;;;143730;584;46020;-84
2021/09/16 00:45:28;;;;;;;12.35;6.30;;;;;;;;;;143731;586;46022;-85
2021/09/16 00:47:55;;;;;;;8.95;5.85;;;;;;;;;;143729;567;46019;-84
2021/09/16 00:50:23;;;;;;;6.82;5.30;;;;;;;;;;143732;580;46020;-84
2021/09/16 00:52:51;;;;;;;9.07;5.40;;;;;;;;;;143727;585;47019;-85
2021/09/16 00:55:19;;;;;;;9.80;5.55;;;;;;;;;;143733;607;46013;-86
2021/09/16 00:57:52;;;;;;;11.68;5.72;;;;;;;;;;143724;587;46018;-86
2021/09/16 01:00:19;;;;;;;6.35;5.30;;;;;;;;;;143732;583;46012;-85
2021/09/16 01:02:46;;;;;;;9.43;5.45;;;;;;;;;;143730;650;46021;-84
2021/09/16 01:05:12;;;;;;;9.55;5.50;;;;;;;;;;143732;594;46012;-84
2021/09/16 01:07:40;;;;;;;12.80;5.97;;;;;;;;;;143729;659;46018;-85
2021/09/16 01:10:10;;;;;;;9.68;5.43;;;;;;;;;;143732;636;46012;-85
2021/09/16 01:12:39;;;;;;;8.18;5.20;;;;;;;;;;143734;569;46041;-85
2021/09/16 01:15:09;;;;;;;9.80;6.72;;;;;;;;;;143730;587;46012;-84
2021/09/16 01:17:36;;;;;;;17.77;6.18;;;;;;;;;;143724;677;47012;-85
2021/09/16 01:20:05;;;;;;;13.32;6.40;;;;;;;;;;143732;577;46012;-84
2021/09/16 01:22:35;;;;;;;9.13;6.12;;;;;;;;;;143726;592;46020;-85
2021/09/16 01:25:04;;;;;;;6.75;5.22;;;;;;;;;;143730;577;46013;-85
2021/09/16 01:27:31;;;;;;;12.90;6.18;;;;;;;;;;143733;615;46018;-84
2021/09/16 01:29:57;;;;;;;12.13;5.90;;;;;;;;;;143730;652;46012;-85
2021/09/16 01:32:24;;;;;;;9.48;5.87;;;;;;;;;;143729;602;47019;-84
2021/09/16 01:34:51;;;;;;;12.57;6.25;;;;;;;;;;143731;756;46012;-85
2021/09/16 01:37:18;;;;;;;8.55;5.90;;;;;;;;;;143729;569;46018;-85
2021/09/16 01:39:45;;;;;;;5.93;5.12;;;;;;;;;;143734;659;46010;-85
2021/09/16 01:42:12;;;;;;;14.15;5.75;;;;;;;;;;143726;679;46042;-84
2021/09/16 01:44:38;;;;;;;10.45;6.70;;;;;;;;;;143732;579;46013;-84
2021/09/16 01:47:05;;;;;;;8.48;6.40;;;;;;;;;;143726;572;46018;-85
2021/09/16 01:49:33;;;;;;;7.85;5.15;;;;;;;;;;143732;578;46012;-84
2021/09/16 01:51:59;;;;;;;9.40;6.18;;;;;;;;;;143729;623;46018;-84
2021/09/16 01:54:26;;;;;;;8.82;6.30;;;;;;;;;;143730;585;47023;-84
2021/09/16 01:56:53;;;;;;;9.45;7.28;;;;;;;;;;143728;673;46018;-85
2021/09/16 01:59:23;;;;;;;11.45;6.30;;;;;;;;;;143729;617;46012;-85
2021/09/16 02:01:51;;;;;;;8.18;6.20;;;;;;;;;;143731;589;46019;-84
2021/09/16 02:04:18;;;;;;;12.02;6.45;;;;;;;;;;143733;587;46012;-85
2021/09/16 02:06:45;;;;;;;10.85;6.03;;;;;;;;;;143731;564;46018;-85
2021/09/16 02:09:11;;;;;;;6.65;5.28;;;;;;;;;;143731;602;46013;-84
2021/09/16 02:11:38;;;;;;;11.52;5.87;;;;;;;;;;143725;623;46020;-85
2021/09/16 02:14:05;;;;;;;7.85;4.90;;;;;;;;;;143729;571;46920;-85
2021/09/16 02:16:32;;;;;;;8.40;5.35;;;;;;;;;;143729;626;46019;-85
2021/09/16 02:18:58;;;;;;;8.75;5.68;;;;;;;;;;143734;639;46022;-85
2021/09/16 02:21:26;;;;;;;8.30;6.32;;;;;;;;;;143730;691;46020;-85
2021/09/16 02:23:53;;;;;;;11.43;6.55;;;;;;;;;;143731;600;46013;-84
2021/09/16 02:26:20;;;;;;;10.95;6.10;;;;;;;;;;143727;587;46018;-85
2021/09/16 02:28:46;;;;;;;16.85;6.07;;;;;;;;;;143732;580;46012;-84
2021/09/16 02:31:14;;;;;;;9.23;6.25;;;;;;;;;;143729;585;46020;-85
2021/09/16 02:33:42;;;;;;;13.05;5.55;;;;;;;;;;143731;602;46012;-86
2021/09/16 02:36:13;;;;;;;13.35;6.60;;;;;;;;;;143725;570;46018;-84
2021/09/16 02:38:43;;;;;;;13.45;6.53;;;;;;;;;;143729;573;46013;-84
2021/09/16 02:41:10;;;;;;;9.57;6.22;;;;;;;;;;143728;579;46020;-85
2021/09/16 02:43:40;;;;;;;11.23;6.45;;;;;;;;;;143732;567;46012;-84
2021/09/16 02:46:10;;;;;;;7.32;5.82;;;;;;;;;;143734;640;45019;-85
2021/09/16 02:48:37;;;;;;;10.70;6.68;;;;;;;;;;143733;596;46020;-84
2021/09/16 02:51:13;;;;;;;10.73;6.60;;;;;;;;;;143729;654;46019;-86
2021/09/16 02:53:40;;;;;;;10.95;6.65;;;;;;;;;;143739;588;45052;-86
2021/09/16 02:56:07;;;;;;;8.23;6.15;;;;;;;;;;143730;580;46018;-85
2021/09/16 02:58:34;;;;;;;7.25;5.65;;;;;;;;;;143732;604;46022;-85
2021/09/16 03:01:02;;;;;;;14.00;6.32;;;;;;;;;;143728;616;46020;-84
2021/09/16 03:03:28;;;;;;;7.95;5.97;;;;;;;;;;143730;620;46012;-85
2021/09/16 03:05:58;;;;;;;15.05;6.37;;;;;;;;;;143727;585;46035;-85
2021/09/16 03:08:24;;;;;;;9.35;6.07;;;;;;;;;;143733;567;46023;-84
2021/09/16 03:10:51;;;;;;;18.92;6.85;;;;;;;;;;143726;611;47039;-85
2021/09/16 03:13:18;;;;;;;10.90;5.72;;;;;;;;;;143731;590;46012;-85
2021/09/16 03:15:45;;;;;;;11.25;6.85;;;;;;;;;;143726;579;46019;-83
2021/09/16 03:18:11;;;;;;;14.87;7.18;;;;;;;;;;143732;594;46012;-86
2021/09/16 03:20:38;;;;;;;15.38;6.65;;;;;;;;;;143724;673;47020;-85
2021/09/16 03:23:05;;;;;;;10.95;6.35;;;;;;;;;;143731;628;46013;-84
2021/09/16 03:25:31;;;;;;;13.18;6.50;;;;;;;;;;143725;570;46018;-85
2021/09/16 03:27:58;;;;;;;17.05;6.78;;;;;;;;;;143729;563;46022;-84
2021/09/16 03:30:25;;;;;;;8.93;6.10;;;;;;;;;;143727;578;47020;-85
2021/09/16 03:32:51;;;;;;;9.35;5.72;;;;;;;;;;143729;581;46012;-84
2021/09/16 03:35:18;;;;;;;7.37;5.25;;;;;;;;;;143726;599;46018;-87
2021/09/16 03:37:45;;;;;;;9.90;5.78;;;;;;;;;;143729;602;46012;-85
2021/09/16 03:40:12;;;;;;;8.88;5.85;;;;;;;;;;143730;564;46021;-84
2021/09/16 03:42:39;;;;;;;21.85;6.18;;;;;;;;;;143730;624;46012;-85
2021/09/16 03:45:06;;;;;;;16.90;5.97;;;;;;;;;;143729;635;46019;-86
2021/09/16 03:47:33;;;;;;;15.27;6.22;;;;;;;;;;143730;580;46012;-85
2021/09/16 03:50:00;;;;;;;14.65;6.30;;;;;;;;;;143727;624;46020;-85
2021/09/16 03:52:26;;;;;;;10.82;6.70;;;;;;;;;;143729;631;46013;-85
2021/09/16 03:54:53;;;;;;;12.18;6.15;;;;;;;;;;143729;587;46018;-86
2021/09/16 03:57:20;;;;;;;7.57;6.28;;;;;;;;;;143730;596;47012;-85
2021/09/16 03:59:47;;;;;;;12.25;7.00;;;;;;;;;;143729;636;47018;-84
2021/09/16 04:02:14;;;;;;;13.90;7.53;;;;;;;;;;143732;643;46012;-86
2021/09/16 04:04:41;;;;;;;11.98;6.25;;;;;;;;;;143729;630;46018;-84
2021/09/16 04:07:09;;;;;;;10.93;6.30;;;;;;;;;;143731;580;46013;-84
2021/09/16 04:09:37;;;;;;;13.85;6.37;;;;;;;;;;143734;588;46021;-85
2021/09/16 04:12:09;;;;;;;10.60;7.00;;;;;;;;;;143734;608;46012;-85
2021/09/16 04:14:36;;;;;;;9.80;7.78;;;;;;;;;;143728;603;46019;-85
2021/09/16 04:17:05;;;;;;;13.93;7.12;;;;;;;;;;143731;594;46010;-86
2021/09/16 04:19:33;;;;;;;10.40;7.15;;;;;;;;;;143730;591;46014;-86
2021/09/16 04:22:00;;;;;;;11.82;6.80;;;;;;;;;;143731;640;46013;-86
2021/09/16 04:24:27;;;;;;;11.88;7.28;;;;;;;;;;143729;596;46018;-85
2021/09/16 04:26:54;;;;;;;12.73;6.87;;;;;;;;;;143731;631;46020;-85
2021/09/16 04:29:20;;;;;;;18.12;7.07;;;;;;;;;;143731;646;46047;-86
2021/09/16 04:31:47;;;;;;;18.17;8.00;;;;;;;;;;143729;593;46012;-85
2021/09/16 04:34:17;;;;;;;12.90;7.62;;;;;;;;;;143732;667;46018;-85
2021/09/16 04:36:44;;;;;;;14.60;8.23;;;;;;;;;;143732;686;46013;-86
2021/09/16 04:39:10;;;;;;;14.60;8.63;;;;;;;;;;143723;574;46018;-87
2021/09/16 04:41:37;;;;;;;19.20;8.20;;;;;;;;;;143732;622;46022;-86
2021/09/16 04:44:04;;;;;;;15.15;7.82;;;;;;;;;;143730;605;46043;-85
2021/09/16 04:46:31;;;;;;;15.32;8.48;;;;;;;;;;143732;646;46012;-86
2021/09/16 04:48:57;;;;;;;19.77;8.52;;;;;;;;;;143728;569;46912;-86
2021/09/16 04:51:24;;;;;;;24.95;9.02;;;;;;;;;;143732;566;46012;-86
2021/09/16 04:53:51;;;;;;;19.67;8.52;;;;;;;;;;143730;662;46018;-85
2021/09/16 04:56:17;;;;;;;22.20;8.25;;;;;;;;;;143733;614;47012;-85
2021/09/16 04:58:44;;;;;;;16.62;6.68;;;;;;;;;;143728;586;46020;-86
2021/09/16 05:01:13;;;;;;;15.35;8.27;;;;;;;;;;143731;605;46013;-86
2021/09/16 05:03:40;;;;;;;13.82;7.85;;;;;;;;;;143725;676;46018;-87
2021/09/16 05:06:06;;;;;;;15.23;7.93;;;;;;;;;;143731;682;46022;-86
2021/09/16 05:08:33;;;;;;;23.52;10.38;;;;;;;;;;143728;581;46046;-86
2021/09/16 05:11:00;;;;;;;31.05;9.93;;;;;;;;;;143730;633;46012;-87
2021/09/16 05:13:28;;;;;;;19.23;8.30;;;;;;;;;;143728;574;46012;-86
2021/09/16 05:15:55;;;;;;;21.45;7.53;;;;;;;;;;143731;571;46012;-87
2021/09/16 05:18:22;;;;;;;15.20;7.55;;;;;;;;;;143726;656;47018;-86
2021/09/16 05:20:48;;;;;;;22.98;9.63;;;;;;;;;;143729;574;46012;-86
2021/09/16 05:23:14;;;;;;;17.00;8.65;;;;;;;;;;143733;602;46018;-87
2021/09/16 05:25:41;;;;;;;18.90;7.15;;;;;;;;;;143730;575;46012;-87
2021/09/16 05:28:08;;;;;;;16.90;6.25;;;;;;;;;;143725;575;47020;-87
2021/09/16 05:30:36;;;;;;;12.27;6.12;;;;;;;;;;143728;586;46013;-86
2021/09/16 05:33:08;;;;;;;13.82;6.70;;;;;;;;;;143728;579;46018;-86
2021/09/16 05:35:36;;;;;;;13.20;8.32;;;;;;;;;;143730;626;46012;-86
2021/09/16 05:38:06;;;;;;;14.70;9.00;;;;;;;;;;143727;658;46021;-85
2021/09/16 05:40:34;;;;;;;20.10;8.57;;;;;;;;;;143725;593;46012;-88
2021/09/16 05:43:00;;;;;;;28.33;10.65;;;;;;;;;;143725;589;46018;-88
2021/09/16 05:45:28;;;;;;;19.62;9.35;;;;;;;;;;143726;591;47010;-86
2021/09/16 05:47:54;;;;;;;27.15;10.68;;;;;;;;;;143723;600;46048;-87
2021/09/16 05:50:21;;;;;;;17.42;11.73;;;;;;;;;;143726;619;46012;-87
2021/09/16 05:52:49;;;;;;;36.13;11.85;;;;;;;;;;143717;570;46013;-86
2021/09/16 05:55:16;;;;;;;22.55;10.75;;;;;;;;;;143726;572;47012;-87
2021/09/16 05:57:44;;;;;;;25.35;10.60;;;;;;;;;;143723;569;46020;-87
2021/09/16 06:00:11;;;;;;;17.37;9.20;;;;;;;;;;143728;566;46013;-86
2021/09/16 06:02:39;;;;;;;28.35;9.43;;;;;;;;;;143725;590;46018;-87
2021/09/16 06:05:06;;;;;;;24.17;10.07;;;;;;;;;;143729;569;46012;-87
2021/09/16 06:07:34;;;;;;;21.45;8.75;;;;;;;;;;143725;576;46013;-87
2021/09/16 06:10:01;;;;;;;13.90;7.55;;;;;;;;;;143730;660;46022;-86
2021/09/16 06:12:30;;;;;;;15.50;8.13;;;;;;;;;;143728;597;46012;-86
2021/09/16 06:14:56;;;;;;;25.62;9.23;;;;;;;;;;143726;564;46013;-87
2021/09/16 06:17:24;;;;;;;27.20;11.60;;;;;;;;;;143720;581;46020;-85
2021/09/16 06:19:54;;;;;;;21.25;10.27;;;;;;;;;;143728;579;46012;-84
2021/09/16 06:22:20;;;;;;;21.70;10.73;;;;;;;;;;143725;565;47019;-88
2021/09/16 06:24:49;;;;;;;18.30;10.13;;;;;;;;;;143728;594;46012;-88
2021/09/16 06:27:16;;;;;;;25.88;9.20;;;;;;;;;;143722;580;46020;-87
2021/09/16 06:29:42;;;;;;;25.33;10.05;;;;;;;;;;143728;971;46012;-86
2021/09/16 06:32:09;;;;;;;19.50;9.57;;;;;;;;;;143723;973;46018;-86
2021/09/16 06:34:36;;;;;;;22.67;9.82;;;;;;;;;;143724;893;46012;-86
2021/09/16 06:37:03;;;;;;;21.92;8.80;;;;;;;;;;143724;930;46042;-86
2021/09/16 06:39:30;;;;;;;18.52;9.75;;;;;;;;;;143729;777;46012;-87
2021/09/16 06:41:59;;;;;;;14.93;8.90;;;;;;;;;;143721;969;47018;-86
2021/09/16 06:44:27;;;;;;;21.45;9.95;;;;;;;;;;143726;594;46013;-88
2021/09/16 06:46:53;;;;;;;25.62;8.18;;;;;;;;;;143722;944;47018;-86
2021/09/16 06:49:20;;;;;;;15.85;8.02;;;;;;;;;;143730;974;46012;-87
2021/09/16 06:51:47;;;;;;;24.05;8.93;;;;;;;;;;143728;649;46019;-85
2021/09/16 06:54:14;;;;;;;20.60;8.02;;;;;;;;;;143731;732;46022;-86
2021/09/16 06:56:41;;;;;;;17.92;7.45;;;;;;;;;;143731;980;46020;-87
2021/09/16 06:59:08;;;;;;;17.90;7.37;;;;;;;;;;143729;593;46013;-91
2021/09/16 07:01:35;;;;;;;21.25;7.82;;;;;;;;;;143729;609;46018;-86
2021/09/16 07:04:04;;;;;;;19.75;6.97;;;;;;;;;;143726;565;47027;-88
2021/09/16 07:06:31;;;;;;;17.37;7.80;;;;;;;;;;143725;627;46020;-85
2021/09/16 07:08:58;;;;;;;10.15;7.40;;;;;;;;;;143730;585;46012;-88
2021/09/16 07:11:25;;;;;;;16.40;7.80;;;;;;;;;;143726;597;46045;-85
2021/09/16 07:13:52;;;;;;;17.77;9.48;;;;;;;;;;143730;578;46013;-87
2021/09/16 07:16:18;;;;;;;19.95;9.32;;;;;;;;;;143723;570;47018;-85
2021/09/16 07:18:48;;;;;;;12.05;8.32;;;;;;;;;;143727;575;47012;-86
2021/09/16 07:21:14;;;;;;;22.05;8.65;;;;;;;;;;143728;571;46024;-87
2021/09/16 07:23:41;;;;;;;24.73;8.85;;;;;;;;;;143733;640;46012;-85
2021/09/16 07:26:09;;;;;;;20.02;8.93;;;;;;;;;;143726;580;46020;-85
2021/09/16 07:28:37;;;;;;;14.93;8.95;;;;;;;;;;143729;656;46012;-86
2021/09/16 07:31:11;;;;;;;35.78;9.23;;;;;;;;;;143723;565;46018;-87
2021/09/16 07:33:39;;;;;;;15.02;8.70;;;;;;;;;;143729;580;46010;-89
2021/09/16 07:36:08;;;;;;;15.90;8.73;;;;;;;;;;143723;601;46020;-87
2021/09/16 07:38:35;;;;;;;22.35;9.20;;;;;;;;;;143730;569;46012;-88
2021/09/16 07:41:05;;;;;;;19.67;8.10;;;;;;;;;;143725;670;46018;-87
2021/09/16 07:43:32;;;;;;;17.17;8.05;;;;;;;;;;143731;608;46021;-88
2021/09/16 07:45:59;;;;;;;16.33;8.40;;;;;;;;;;143729;591;47018;-88
2021/09/16 07:48:26;;;;;;;18.85;7.15;;;;;;;;;;143726;641;46012;-88
2021/09/16 07:50:53;;;;;;;10.98;7.35;;;;;;;;;;143727;606;46012;-87
2021/09/16 07:53:20;;;;;;;12.60;7.70;;;;;;;;;;143726;575;46045;-86
2021/09/16 07:55:47;;;;;;;17.02;7.62;;;;;;;;;;143721;579;46020;-86
2021/09/16 07:58:14;;;;;;;20.12;7.85;;;;;;;;;;143725;585;46023;-90
2021/09/16 08:00:42;;;;;;;19.27;7.82;;;;;;;;;;143725;603;46018;-87
2021/09/16 08:03:09;;;;;;;19.58;8.05;;;;;;;;;;143726;582;46012;-89
2021/09/16 08:06:55;;;;;;;17.75;7.90;;;;;;;;;;143729;573;46020;-89
2021/09/16 08:10:35;;;;;;;;;;;;;;;;;;;;;
2021/09/16 08:13:41;;;;;;;13.23;7.68;;;;;;;;;;143725;595;47020;-90
2021/09/16 08:16:08;;;;;;;12.37;7.70;;;;;;;;;;143730;639;46020;-89
2021/09/16 08:18:35;;;;;;;16.25;8.23;;;;;;;;;;143726;571;46020;-89
2021/09/16 08:21:02;;;;;;;15.73;8.05;;;;;;;;;;143731;602;46011;-89
2021/09/16 08:23:29;;;;;;;11.90;8.13;;;;;;;;;;143724;585;46018;-89
2021/09/16 08:25:56;;;;;;;10.38;7.53;;;;;;;;;;143729;613;46026;-88
2021/09/16 08:28:25;;;;;;;14.50;8.75;;;;;;;;;;143724;564;46020;-90
2021/09/16 08:30:53;;;;;;;15.15;8.20;;;;;;;;;;143730;602;46012;-90
2021/09/16 08:33:22;;;;;;;15.88;7.70;;;;;;;;;;143729;609;46016;-89
2021/09/16 08:35:53;;;;;;;15.48;8.18;;;;;;;;;;143725;572;47012;-88
2021/09/16 08:42:45;;;;;;;;;;;;;;;;;;;;;
2021/09/16 08:45:15;;;;;;;16.40;7.75;;;;;;;;;;143732;578;46020;-87
2021/09/16 08:47:43;;;;;;;9.13;7.12;;;;;;;;;;143728;638;46015;-87
2021/09/16 08:50:11;;;;;;;13.50;6.93;;;;;;;;;;143725;592;46020;-87
2021/09/16 08:52:40;;;;;;;14.52;7.70;;;;;;;;;;143727;572;47010;-86
2021/09/16 08:55:10;;;;;;;13.15;8.07;;;;;;;;;;143721;588;47018;-87
2021/09/16 08:57:39;;;;;;;11.88;7.25;;;;;;;;;;143731;580;46013;-86
2021/09/16 09:00:09;;;;;;;11.88;7.47;;;;;;;;;;143725;569;47021;-87
2021/09/16 09:02:37;;;;;;;7.60;6.57;;;;;;;;;;143730;573;46012;-87
2021/09/16 09:05:09;;;;;;;13.57;7.57;;;;;;;;;;143727;577;46019;-91
2021/09/16 09:07:42;;;;;;;16.62;8.20;;;;;;;;;;143732;565;46022;-88
2021/09/16 09:10:12;;;;;;;12.18;8.52;;;;;;;;;;143729;580;47018;-89
2021/09/16 09:12:39;;;;;;;9.07;6.68;;;;;;;;;;143731;597;46013;-89
2021/09/16 09:15:10;;;;;;;12.07;8.07;;;;;;;;;;143726;609;45044;-89
2021/09/16 09:17:37;;;;;;;15.63;7.87;;;;;;;;;;143730;572;46012;-88
2021/09/16 09:20:10;;;;;;;12.05;8.52;;;;;;;;;;143725;564;46020;-88
2021/09/16 09:22:40;;;;;;;14.02;8.20;;;;;;;;;;143728;612;46012;-89
2021/09/16 09:25:20;;;;;;;9.65;8.00;;;;;;;;;;143729;576;46018;-88
2021/09/16 09:27:54;;;;;;;11.30;8.65;;;;;;;;;;143730;599;46013;-88
2021/09/16 09:30:22;;;;;;;;;;;;;;;;;;143733;981;46020;-87
2021/09/16 09:33:00;;;;;;;17.30;8.32;;;;;;;;;;143737;580;46022;-88
2021/09/16 09:35:41;;;;;;;11.27;7.82;;;;;;;;;;143728;566;46019;-88
2021/09/16 09:38:46;;;;;;;15.40;8.40;;;;;;;;;;143729;618;46051;-88
2021/09/16 09:41:21;;;;;;;13.57;7.40;;;;;;;;;;143722;598;47022;-87
2021/09/16 09:43:48;;;;;;;18.15;8.75;;;;;;;;;;143726;564;46013;-86
2021/09/16 09:46:19;;;;;;;15.88;8.50;;;;;;;;;;143729;574;46018;-87
2021/09/16 09:49:05;;;;;;;15.77;7.75;;;;;;;;;;143730;611;46013;-89
2021/09/16 09:51:43;;;;;;;11.47;7.37;;;;;;;;;;143728;631;47021;-86
2021/09/16 09:54:17;;;;;;;15.60;8.20;;;;;;;;;;143733;579;46022;-86
2021/09/16 09:57:05;;;;;;;10.73;7.47;;;;;;;;;;143729;660;46019;-87
2021/09/16 09:59:55;;;;;;;11.38;7.30;;;;;;;;;;143730;574;46022;-88
2021/09/16 10:02:27;;;;;;;12.50;7.82;;;;;;;;;;143725;621;47020;-86
2021/09/16 10:04:54;;;;;;;12.55;8.30;;;;;;;;;;143732;628;45023;-86
2021/09/16 10:07:38;;;;;;;10.55;7.10;;;;;;;;;;143722;637;46018;-88
2021/09/16 10:10:08;;;;;;;25.45;8.40;;;;;;;;;;143729;564;46022;-86
2021/09/16 10:12:35;;;;;;;13.50;7.40;;;;;;;;;;143729;570;46021;-88
2021/09/16 10:15:02;;;;;;;9.57;7.95;;;;;;;;;;143730;576;46012;-87
2021/09/16 10:17:29;;;;;;;17.25;8.80;;;;;;;;;;143730;569;46014;-86
2021/09/16 10:19:56;;;;;;;13.77;7.57;;;;;;;;;;143730;606;46013;-87
2021/09/16 10:22:23;;;;;;;10.73;7.28;;;;;;;;;;143732;591;46018;-86
2021/09/16 10:24:52;;;;;;;10.00;7.25;;;;;;;;;;143728;573;46012;-88
2021/09/16 10:27:39;;;;;;;11.60;7.85;;;;;;;;;;143727;587;46019;-87
2021/09/16 10:30:29;;;;;;;8.15;7.30;;;;;;;;;;143731;573;46012;-87
2021/09/16 10:33:29;;;;;;;13.02;6.85;;;;;;;;;;143724;585;46018;-88
2021/09/16 10:36:07;;;;;;;9.82;6.10;;;;;;;;;;143729;658;46013;-85
2021/09/16 10:38:41;;;;;;;13.77;6.12;;;;;;;;;;143731;579;46018;-88
2021/09/16 10:41:25;;;;;;;14.40;6.15;;;;;;;;;;143730;585;46013;-87
2021/09/16 10:44:19;;;;;;;8.98;6.20;;;;;;;;;;143726;572;46021;-88
2021/09/16 10:46:48;;;;;;;10.50;6.00;;;;;;;;;;143729;594;46012;-85
2021/09/16 10:49:40;;;;;;;10.65;6.80;;;;;;;;;;143727;574;46019;-85
2021/09/16 10:52:25;;;;;;;8.07;6.20;;;;;;;;;;143727;664;46014;-86
2021/09/16 10:54:56;;;;;;;11.77;6.05;;;;;;;;;;143726;594;46022;-86
2021/09/16 10:57:35;;;;;;;8.63;6.12;;;;;;;;;;143728;575;46013;-87
2021/09/16 11:00:08;;;;;;;8.93;6.32;;;;;;;;;;143723;589;46018;-88
2021/09/16 11:03:01;;;;;;;9.07;6.07;;;;;;;;;;143729;576;46013;-85
2021/09/16 11:05:40;;;;;;;10.63;6.45;;;;;;;;;;143730;614;46023;-87
2021/09/16 11:08:07;;;;;;;7.45;5.15;;;;;;;;;;143725;612;46012;-84
2021/09/16 11:10:56;;;;;;;16.50;6.22;;;;;;;;;;143730;599;46019;-85
2021/09/16 11:13:37;;;;;;;15.32;6.95;;;;;;;;;;143729;620;47020;-84
2021/09/16 11:16:05;;;;;;;10.38;6.15;;;;;;;;;;143723;612;47020;-83
2021/09/16 11:18:32;;;;;;;12.15;6.45;;;;;;;;;;143731;599;46012;-83
2021/09/16 11:21:03;;;;;;;11.57;5.53;;;;;;;;;;143726;575;46018;-82
2021/09/16 11:23:49;;;;;;;9.45;6.03;;;;;;;;;;143729;579;46012;-83
2021/09/16 11:26:20;;;;;;;10.48;6.22;;;;;;;;;;143723;618;46020;-86
2021/09/16 11:29:08;;;;;;;8.07;5.93;;;;;;;;;;143727;599;47012;-85
2021/09/16 11:31:35;;;;;;;14.50;7.15;;;;;;;;;;143727;586;46018;-87
2021/09/16 11:34:09;;;;;;;13.05;5.95;;;;;;;;;;143730;575;46014;-87
2021/09/16 11:36:37;;;;;;;11.20;6.43;;;;;;;;;;143722;592;47020;-85
2021/09/16 11:39:18;;;;;;;10.65;6.47;;;;;;;;;;143728;625;46012;-86
2021/09/16 11:41:45;;;;;;;12.63;7.15;;;;;;;;;;143723;629;46019;-84
2021/09/16 11:44:12;;;;;;;8.20;6.37;;;;;;;;;;143731;591;46012;-87
2021/09/16 11:46:39;;;;;;;15.02;7.00;;;;;;;;;;143721;591;47020;-86
2021/09/16 11:49:05;;;;;;;13.93;6.37;;;;;;;;;;143728;569;46023;-86
2021/09/16 11:51:32;;;;;;;11.48;6.03;;;;;;;;;;143723;605;46018;-85
2021/09/16 11:54:09;;;;;;;14.13;6.12;;;;;;;;;;143730;583;46012;-86
2021/09/16 11:56:36;;;;;;;17.95;6.22;;;;;;;;;;143726;569;46021;-86
2021/09/16 11:59:08;;;;;;;9.95;5.72;;;;;;;;;;143728;577;46012;-87
2021/09/16 12:01:38;;;;;;;8.60;5.62;;;;;;;;;;143728;588;46014;-87
2021/09/16 12:04:04;;;;;;;11.68;5.80;;;;;;;;;;143725;960;47014;-85
2021/09/16 12:06:35;;;;;;;11.75;5.20;;;;;;;;;;143726;560;46021;-86
2021/09/16 12:09:20;;;;;;;11.95;5.65;;;;;;;;;;143731;589;46012;-79
2021/09/16 12:12:10;;;;;;;10.40;5.20;;;;;;;;;;143731;712;45019;-87
2021/09/16 12:14:56;;;;;;;13.05;5.18;;;;;;;;;;143731;949;46012;-87
2021/09/16 12:17:53;;;;;;;9.38;6.32;;;;;;;;;;143727;971;46013;-88
2021/09/16 12:20:39;;;;;;;10.77;6.10;;;;;;;;;;143736;972;45023;-87
2021/09/16 12:23:26;;;;;;;11.30;5.97;;;;;;;;;;143730;591;45912;-80
2021/09/16 12:26:17;;;;;;;11.52;5.25;;;;;;;;;;143734;564;45023;-80
2021/09/16 12:29:19;;;;;;;8.65;6.30;;;;;;;;;;143728;571;46018;-79
2021/09/16 12:32:12;;;;;;;9.30;5.60;;;;;;;;;;143732;928;45022;-86
2021/09/16 12:34:50;;;;;;;12.98;6.45;;;;;;;;;;143737;705;45019;-86
2021/09/16 12:37:32;;;;;;;9.98;6.15;;;;;;;;;;143736;564;45022;-87
2021/09/16 12:40:03;;;;;;;9.85;6.15;;;;;;;;;;143732;564;46018;-85
2021/09/16 12:42:41;;;;;;;11.07;6.18;;;;;;;;;;143735;581;46012;-86
2021/09/16 12:45:15;;;;;;;19.12;6.60;;;;;;;;;;143730;569;46018;-86
2021/09/16 12:47:57;;;;;;;13.95;6.35;;;;;;;;;;143734;577;46021;-86
2021/09/16 12:50:32;;;;;;;14.60;5.78;;;;;;;;;;143735;569;46018;-87
2021/09/16 12:53:15;;;;;;;12.10;6.18;;;;;;;;;;143731;584;46012;-88
2021/09/16 12:55:54;;;;;;;9.70;6.32;;;;;;;;;;143729;710;46019;-86
2021/09/16 12:58:28;;;;;;;7.00;5.62;;;;;;;;;;143733;583;46012;-85
2021/09/16 13:01:05;;;;;;;14.27;5.97;;;;;;;;;;143727;594;47020;-88
2021/09/16 13:03:33;;;;;;;10.35;5.47;;;;;;;;;;143732;578;46013;-88
2021/09/16 13:06:22;;;;;;;10.88;5.55;;;;;;;;;;143731;599;46018;-87
2021/09/16 13:08:57;;;;;;;7.07;5.80;;;;;;;;;;143732;565;46012;-87
2021/09/16 13:11:49;;;;;;;10.55;5.53;;;;;;;;;;143728;754;46018;-87
2021/09/16 13:14:31;;;;;;;;;;;;;;;;;;;;;
2021/09/16 13:17:09;;;;;;;11.45;6.03;;;;;;;;;;143729;583;46018;-86
2021/09/16 13:19:53;;;;;;;9.45;5.57;;;;;;;;;;143730;576;46012;-87
2021/09/16 13:22:26;;;;;;;8.23;5.72;;;;;;;;;;143729;573;46044;-86
2021/09/16 13:25:00;;;;;;;7.97;5.62;;;;;;;;;;143731;900;46012;-86
2021/09/16 13:27:28;;;;;;;9.07;5.47;;;;;;;;;;143731;569;46018;-87
2021/09/16 13:30:01;;;;;;;16.62;5.97;;;;;;;;;;143732;580;46012;-87
2021/09/16 13:32:33;;;;;;;8.25;5.80;;;;;;;;;;143730;783;46018;-87
2021/09/16 13:35:01;;;;;;;8.67;5.70;;;;;;;;;;143732;620;46012;-86
2021/09/16 13:37:28;;;;;;;9.27;5.80;;;;;;;;;;143727;643;46018;-87
2021/09/16 13:39:55;;;;;;;5.85;4.90;;;;;;;;;;143733;662;46013;-86
2021/09/16 13:42:24;;;;;;;8.73;5.47;;;;;;;;;;143730;689;46021;-87
2021/09/16 13:44:51;;;;;;;8.52;5.50;;;;;;;;;;143732;737;46012;-86
2021/09/16 13:47:18;;;;;;;12.93;5.68;;;;;;;;;;143729;612;46018;-87
2021/09/16 13:49:45;;;;;;;7.90;5.20;;;;;;;;;;143730;590;46012;-87
2021/09/16 13:52:13;;;;;;;11.88;5.82;;;;;;;;;;143731;624;46018;-88
2021/09/16 13:54:40;;;;;;;9.38;5.75;;;;;;;;;;143731;574;46013;-88
2021/09/16 13:57:12;;;;;;;7.60;5.35;;;;;;;;;;143731;618;46019;-88
2021/09/16 13:59:38;;;;;;;8.23;6.32;;;;;;;;;;143731;569;46012;-90
2021/09/16 14:02:07;;;;;;;11.77;5.78;;;;;;;;;;143729;596;46019;-87
2021/09/16 14:04:35;;;;;;;14.25;5.82;;;;;;;;;;143731;598;46012;-91
2021/09/16 14:07:09;;;;;;;9.93;6.25;;;;;;;;;;143730;597;45912;-87
2021/09/16 14:09:45;;;;;;;7.85;5.70;;;;;;;;;;143733;903;46013;-89
2021/09/16 14:12:15;;;;;;;13.40;5.90;;;;;;;;;;143731;602;46039;-89
2021/09/16 14:14:45;;;;;;;8.00;4.85;;;;;;;;;;143732;581;46012;-90
2021/09/16 14:17:14;;;;;;;13.75;6.05;;;;;;;;;;143730;589;46019;-89
2021/09/16 14:19:42;;;;;;;7.57;5.82;;;;;;;;;;143732;600;46040;-87
2021/09/16 14:22:18;;;;;;;11.38;5.75;;;;;;;;;;143729;578;47020;-89
2021/09/16 14:24:45;;;;;;;8.93;5.87;;;;;;;;;;143733;581;46920;-88
2021/09/16 14:27:15;;;;;;;10.27;6.00;;;;;;;;;;143726;834;46018;-87
2021/09/16 14:29:42;;;;;;;11.27;6.40;;;;;;;;;;143728;573;46012;-89
2021/09/16 14:32:21;;;;;;;10.32;5.80;;;;;;;;;;143733;583;46019;-90
2021/09/16 14:35:01;;;;;;;14.00;5.97;;;;;;;;;;143733;595;46921;-90
2021/09/16 14:37:28;;;;;;;14.20;5.85;;;;;;;;;;143732;598;46018;-89
2021/09/16 14:39:55;;;;;;;13.10;6.50;;;;;;;;;;143734;569;46012;-88
2021/09/16 14:42:24;;;;;;;16.48;7.25;;;;;;;;;;143732;692;46021;-90
2021/09/16 14:44:54;;;;;;;9.15;6.68;;;;;;;;;;143730;573;46022;-90
2021/09/16 14:47:21;;;;;;;8.68;7.40;;;;;;;;;;143732;581;46018;-88
2021/09/16 14:49:48;;;;;;;10.07;7.82;;;;;;;;;;143728;569;46012;-86
2021/09/16 14:52:15;;;;;;;12.07;6.37;;;;;;;;;;143725;566;46020;-88
2021/09/16 14:54:45;;;;;;;7.45;6.05;;;;;;;;;;143728;584;46033;-87
2021/09/16 14:57:13;;;;;;;16.25;6.62;;;;;;;;;;143732;572;46018;-85
2021/09/16 14:59:40;;;;;;;13.38;7.25;;;;;;;;;;143733;737;46012;-87
2021/09/16 15:02:08;;;;;;;8.88;7.20;;;;;;;;;;143732;585;46020;-87